sensor_id;sensor_type;location;lat;lon;timestamp;temperature;humidity
68248;SHT30;55064;49.636;12.164;2023-02-26T00:01:24;-1.31;78.16
68248;SHT30;55064;49.636;12.164;2023-02-26T00:03:56;-1.34;79.22
68248;SHT30;55064;49.636;12.164;2023-02-26T00:06:23;-1.43;79.47
68248;SHT30;55064;49.636;12.164;2023-02-26T00:08:49;-1.45;79.22
68248;SHT30;55064;49.636;12.164;2023-02-26T00:11:14;-1.51;78.83
68248;SHT30;55064;49.636;12.164;2023-02-26T00:13:42;-1.47;79.08
68248;SHT30;55064;49.636;12.164;2023-02-26T00:16:32;-1.50;78.89
68248;SHT30;55064;49.636;12.164;2023-02-26T00:19:00;-1.56;78.17
68248;SHT30;55064;49.636;12.164;2023-02-26T00:21:27;-1.62;78.14
68248;SHT30;55064;49.636;12.164;2023-02-26T00:23:53;-1.65;78.54
68248;SHT30;55064;49.636;12.164;2023-02-26T00:26:19;-1.66;79.25
68248;SHT30;55064;49.636;12.164;2023-02-26T00:28:46;-1.68;78.93
68248;SHT30;55064;49.636;12.164;2023-02-26T00:31:14;-1.74;79.69
68248;SHT30;55064;49.636;12.164;2023-02-26T00:33:40;-1.76;79.01
68248;SHT30;55064;49.636;12.164;2023-02-26T00:38:49;-1.89;78.97
68248;SHT30;55064;49.636;12.164;2023-02-26T00:41:16;-1.93;79.87
68248;SHT30;55064;49.636;12.164;2023-02-26T00:43:45;-1.96;79.96
68248;SHT30;55064;49.636;12.164;2023-02-26T00:54:19;-2.03;80.21
68248;SHT30;55064;49.636;12.164;2023-02-26T00:56:50;-2.04;80.50
68248;SHT30;55064;49.636;12.164;2023-02-26T00:59:18;-2.06;81.25
68248;SHT30;55064;49.636;12.164;2023-02-26T01:01:44;-2.10;81.23
68248;SHT30;55064;49.636;12.164;2023-02-26T01:04:10;-2.17;81.52
68248;SHT30;55064;49.636;12.164;2023-02-26T01:06:41;-2.15;81.44
68248;SHT30;55064;49.636;12.164;2023-02-26T01:11:34;-2.17;82.02
68248;SHT30;55064;49.636;12.164;2023-02-26T01:14:01;-2.19;81.88
68248;SHT30;55064;49.636;12.164;2023-02-26T01:16:27;-2.19;82.26
68248;SHT30;55064;49.636;12.164;2023-02-26T01:19:19;-2.23;81.60
68248;SHT30;55064;49.636;12.164;2023-02-26T01:21:59;-2.23;82.26
68248;SHT30;55064;49.636;12.164;2023-02-26T01:24:28;-2.30;82.85
68248;SHT30;55064;49.636;12.164;2023-02-26T01:26:57;-2.33;82.68
68248;SHT30;55064;49.636;12.164;2023-02-26T01:29:23;-2.34;82.44
68248;SHT30;55064;49.636;12.164;2023-02-26T01:31:59;-2.38;82.56
68248;SHT30;55064;49.636;12.164;2023-02-26T01:37:03;-2.47;83.22
68248;SHT30;55064;49.636;12.164;2023-02-26T01:39:42;-2.42;83.40
68248;SHT30;55064;49.636;12.164;2023-02-26T01:50:24;-2.51;83.80
68248;SHT30;55064;49.636;12.164;2023-02-26T01:53:15;-2.58;83.58
68248;SHT30;55064;49.636;12.164;2023-02-26T01:55:42;-2.64;83.75
68248;SHT30;55064;49.636;12.164;2023-02-26T01:58:08;-2.68;83.68
68248;SHT30;55064;49.636;12.164;2023-02-26T02:00:34;-2.73;84.00
68248;SHT30;55064;49.636;12.164;2023-02-26T02:03:00;-2.70;84.03
68248;SHT30;55064;49.636;12.164;2023-02-26T02:06:01;-2.68;84.38
68248;SHT30;55064;49.636;12.164;2023-02-26T02:08:19;-2.69;84.21
68248;SHT30;55064;49.636;12.164;2023-02-26T02:10:49;-2.70;84.46
68248;SHT30;55064;49.636;12.164;2023-02-26T02:15:56;-2.68;84.25
68248;SHT30;55064;49.636;12.164;2023-02-26T02:18:48;-2.68;83.98
68248;SHT30;55064;49.636;12.164;2023-02-26T02:24:14;-2.70;84.45
68248;SHT30;55064;49.636;12.164;2023-02-26T02:32:09;-2.72;84.32
68248;SHT30;55064;49.636;12.164;2023-02-26T02:34:36;-2.72;84.25
68248;SHT30;55064;49.636;12.164;2023-02-26T02:37:32;-2.80;84.26
68248;SHT30;55064;49.636;12.164;2023-02-26T02:45:18;-2.85;84.78
68248;SHT30;55064;49.636;12.164;2023-02-26T02:47:48;-2.90;85.03
68248;SHT30;55064;49.636;12.164;2023-02-26T02:50:34;-2.86;85.27
68248;SHT30;55064;49.636;12.164;2023-02-26T02:53:14;-2.82;85.18
68248;SHT30;55064;49.636;12.164;2023-02-26T02:55:47;-2.86;85.73
68248;SHT30;55064;49.636;12.164;2023-02-26T02:58:22;-2.90;85.60
68248;SHT30;55064;49.636;12.164;2023-02-26T03:00:54;-2.92;85.74
68248;SHT30;55064;49.636;12.164;2023-02-26T03:06:01;-2.85;85.67
68248;SHT30;55064;49.636;12.164;2023-02-26T03:08:34;-2.82;85.57
68248;SHT30;55064;49.636;12.164;2023-02-26T03:11:03;-2.78;85.64
68248;SHT30;55064;49.636;12.164;2023-02-26T03:13:31;-2.75;85.50
68248;SHT30;55064;49.636;12.164;2023-02-26T03:16:28;-2.78;85.62
68248;SHT30;55064;49.636;12.164;2023-02-26T03:19:07;-2.76;85.47
68248;SHT30;55064;49.636;12.164;2023-02-26T03:24:08;-2.76;85.37
68248;SHT30;55064;49.636;12.164;2023-02-26T03:26:43;-2.69;85.41
68248;SHT30;55064;49.636;12.164;2023-02-26T03:31:58;-2.66;85.09
68248;SHT30;55064;49.636;12.164;2023-02-26T03:34:42;-2.68;84.92
68248;SHT30;55064;49.636;12.164;2023-02-26T03:39:42;-2.62;85.13
68248;SHT30;55064;49.636;12.164;2023-02-26T03:45:04;-2.54;84.86
68248;SHT30;55064;49.636;12.164;2023-02-26T03:47:32;-2.48;84.48
68248;SHT30;55064;49.636;12.164;2023-02-26T03:50:15;-2.44;84.55
68248;SHT30;55064;49.636;12.164;2023-02-26T03:52:44;-2.42;84.73
68248;SHT30;55064;49.636;12.164;2023-02-26T03:55:48;-2.34;84.85
68248;SHT30;55064;49.636;12.164;2023-02-26T03:58:06;-2.38;84.95
68248;SHT30;55064;49.636;12.164;2023-02-26T04:00:34;-2.38;85.10
68248;SHT30;55064;49.636;12.164;2023-02-26T04:05:56;-2.30;85.11
68248;SHT30;55064;49.636;12.164;2023-02-26T04:08:24;-2.24;85.38
68248;SHT30;55064;49.636;12.164;2023-02-26T04:11:05;-2.21;84.65
68248;SHT30;55064;49.636;12.164;2023-02-26T04:13:34;-2.20;84.58
68248;SHT30;55064;49.636;12.164;2023-02-26T04:16:02;-2.17;84.73
68248;SHT30;55064;49.636;12.164;2023-02-26T04:18:29;-2.17;84.92
68248;SHT30;55064;49.636;12.164;2023-02-26T04:20:56;-2.14;84.90
68248;SHT30;55064;49.636;12.164;2023-02-26T04:23:22;-2.14;84.56
68248;SHT30;55064;49.636;12.164;2023-02-26T04:25:53;-2.09;84.65
68248;SHT30;55064;49.636;12.164;2023-02-26T04:28:19;-2.09;84.80
68248;SHT30;55064;49.636;12.164;2023-02-26T04:30:44;-2.07;85.06
68248;SHT30;55064;49.636;12.164;2023-02-26T04:33:12;-2.10;85.17
68248;SHT30;55064;49.636;12.164;2023-02-26T04:35:38;-2.04;85.12
68248;SHT30;55064;49.636;12.164;2023-02-26T04:38:03;-2.07;85.40
68248;SHT30;55064;49.636;12.164;2023-02-26T04:40:29;-2.06;85.42
68248;SHT30;55064;49.636;12.164;2023-02-26T04:42:55;-2.07;85.43
68248;SHT30;55064;49.636;12.164;2023-02-26T04:45:23;-2.09;85.46
68248;SHT30;55064;49.636;12.164;2023-02-26T04:47:48;-2.13;85.56
68248;SHT30;55064;49.636;12.164;2023-02-26T04:50:14;-2.10;85.61
68248;SHT30;55064;49.636;12.164;2023-02-26T04:52:45;-2.11;85.69
68248;SHT30;55064;49.636;12.164;2023-02-26T04:55:10;-2.09;85.27
68248;SHT30;55064;49.636;12.164;2023-02-26T04:57:36;-2.10;84.90
68248;SHT30;55064;49.636;12.164;2023-02-26T05:00:03;-2.17;85.42
68248;SHT30;55064;49.636;12.164;2023-02-26T05:02:31;-2.14;85.49
68248;SHT30;55064;49.636;12.164;2023-02-26T05:04:58;-2.10;85.10
68248;SHT30;55064;49.636;12.164;2023-02-26T05:07:23;-2.15;85.19
68248;SHT30;55064;49.636;12.164;2023-02-26T05:09:50;-2.19;85.36
68248;SHT30;55064;49.636;12.164;2023-02-26T05:12:16;-2.15;85.60
68248;SHT30;55064;49.636;12.164;2023-02-26T05:14:41;-2.20;85.72
68248;SHT30;55064;49.636;12.164;2023-02-26T05:17:07;-2.21;85.61
68248;SHT30;55064;49.636;12.164;2023-02-26T05:19:33;-2.30;85.73
68248;SHT30;55064;49.636;12.164;2023-02-26T05:21:59;-2.27;85.67
68248;SHT30;55064;49.636;12.164;2023-02-26T05:24:25;-2.34;85.74
68248;SHT30;55064;49.636;12.164;2023-02-26T05:26:50;-2.29;85.48
68248;SHT30;55064;49.636;12.164;2023-02-26T05:29:17;-2.34;85.97
68248;SHT30;55064;49.636;12.164;2023-02-26T05:31:47;-2.36;86.09
68248;SHT30;55064;49.636;12.164;2023-02-26T05:34:13;-2.37;86.21
68248;SHT30;55064;49.636;12.164;2023-02-26T05:36:38;-2.38;86.48
68248;SHT30;55064;49.636;12.164;2023-02-26T05:39:06;-2.41;86.80
68248;SHT30;55064;49.636;12.164;2023-02-26T05:41:32;-2.38;86.56
68248;SHT30;55064;49.636;12.164;2023-02-26T05:43:58;-2.38;86.69
68248;SHT30;55064;49.636;12.164;2023-02-26T05:46:28;-2.34;86.68
68248;SHT30;55064;49.636;12.164;2023-02-26T05:48:55;-2.36;87.20
68248;SHT30;55064;49.636;12.164;2023-02-26T05:51:20;-2.34;87.60
68248;SHT30;55064;49.636;12.164;2023-02-26T05:53:45;-2.33;87.94
68248;SHT30;55064;49.636;12.164;2023-02-26T05:56:11;-2.44;88.53
68248;SHT30;55064;49.636;12.164;2023-02-26T05:58:37;-2.38;88.91
68248;SHT30;55064;49.636;12.164;2023-02-26T06:01:02;-2.34;89.26
68248;SHT30;55064;49.636;12.164;2023-02-26T06:03:28;-2.41;89.83
68248;SHT30;55064;49.636;12.164;2023-02-26T06:05:55;-2.38;89.92
68248;SHT30;55064;49.636;12.164;2023-02-26T06:08:23;-2.36;89.91
68248;SHT30;55064;49.636;12.164;2023-02-26T06:10:49;-2.33;90.00
68248;SHT30;55064;49.636;12.164;2023-02-26T06:13:15;-2.36;90.26
68248;SHT30;55064;49.636;12.164;2023-02-26T06:15:41;-2.40;90.48
68248;SHT30;55064;49.636;12.164;2023-02-26T06:18:06;-2.36;90.49
68248;SHT30;55064;49.636;12.164;2023-02-26T06:20:32;-2.36;90.66
68248;SHT30;55064;49.636;12.164;2023-02-26T06:22:58;-2.30;90.66
68248;SHT30;55064;49.636;12.164;2023-02-26T06:25:23;-2.31;90.88
68248;SHT30;55064;49.636;12.164;2023-02-26T06:27:48;-2.24;90.91
68248;SHT30;55064;49.636;12.164;2023-02-26T06:30:14;-2.26;90.97
68248;SHT30;55064;49.636;12.164;2023-02-26T06:32:44;-2.23;90.97
68248;SHT30;55064;49.636;12.164;2023-02-26T06:35:10;-2.20;90.87
68248;SHT30;55064;49.636;12.164;2023-02-26T06:37:36;-2.15;90.71
68248;SHT30;55064;49.636;12.164;2023-02-26T06:40:03;-2.14;90.78
68248;SHT30;55064;49.636;12.164;2023-02-26T06:42:28;-2.10;90.67
68248;SHT30;55064;49.636;12.164;2023-02-26T06:45:03;-2.02;90.16
68248;SHT30;55064;49.636;12.164;2023-02-26T06:47:30;-1.94;89.65
68248;SHT30;55064;49.636;12.164;2023-02-26T06:50:07;-1.99;89.18
68248;SHT30;55064;49.636;12.164;2023-02-26T06:52:50;-1.92;88.96
68248;SHT30;55064;49.636;12.164;2023-02-26T06:55:26;-1.89;88.29
68248;SHT30;55064;49.636;12.164;2023-02-26T06:58:12;-1.83;88.54
68248;SHT30;55064;49.636;12.164;2023-02-26T07:00:45;-1.76;88.25
68248;SHT30;55064;49.636;12.164;2023-02-26T07:06:36;-1.71;88.05
68248;SHT30;55064;49.636;12.164;2023-02-26T07:12:26;-1.52;87.38
68248;SHT30;55064;49.636;12.164;2023-02-26T07:18:13;-1.43;86.69
68248;SHT30;55064;49.636;12.164;2023-02-26T07:20:40;-1.44;86.71
68248;SHT30;55064;49.636;12.164;2023-02-26T07:23:09;-1.41;86.61
68248;SHT30;55064;49.636;12.164;2023-02-26T07:25:34;-1.47;86.23
68248;SHT30;55064;49.636;12.164;2023-02-26T07:28:03;-1.47;86.41
68248;SHT30;55064;49.636;12.164;2023-02-26T07:30:28;-1.43;86.65
68248;SHT30;55064;49.636;12.164;2023-02-26T07:32:55;-1.48;86.65
68248;SHT30;55064;49.636;12.164;2023-02-26T07:35:20;-1.45;87.02
68248;SHT30;55064;49.636;12.164;2023-02-26T07:37:46;-1.52;86.76
68248;SHT30;55064;49.636;12.164;2023-02-26T07:40:12;-1.48;87.00
68248;SHT30;55064;49.636;12.164;2023-02-26T07:42:43;-1.44;86.75
68248;SHT30;55064;49.636;12.164;2023-02-26T07:45:09;-1.43;86.45
68248;SHT30;55064;49.636;12.164;2023-02-26T07:47:35;-1.41;86.18
68248;SHT30;55064;49.636;12.164;2023-02-26T07:50:02;-1.41;86.10
68248;SHT30;55064;49.636;12.164;2023-02-26T07:52:28;-1.43;86.33
68248;SHT30;55064;49.636;12.164;2023-02-26T07:54:54;-1.33;86.51
68248;SHT30;55064;49.636;12.164;2023-02-26T07:57:20;-1.33;86.29
68248;SHT30;55064;49.636;12.164;2023-02-26T07:59:48;-1.27;86.26
68248;SHT30;55064;49.636;12.164;2023-02-26T08:02:13;-1.23;85.95
68248;SHT30;55064;49.636;12.164;2023-02-26T08:04:42;-1.27;85.51
68248;SHT30;55064;49.636;12.164;2023-02-26T08:07:07;-1.21;85.40
68248;SHT30;55064;49.636;12.164;2023-02-26T08:09:35;-1.20;85.07
68248;SHT30;55064;49.636;12.164;2023-02-26T08:12:01;-1.11;85.25
68248;SHT30;55064;49.636;12.164;2023-02-26T08:14:26;-1.04;85.04
68248;SHT30;55064;49.636;12.164;2023-02-26T08:16:52;-0.86;85.31
68248;SHT30;55064;49.636;12.164;2023-02-26T08:19:18;-0.73;84.48
68248;SHT30;55064;49.636;12.164;2023-02-26T08:21:44;-0.66;83.78
68248;SHT30;55064;49.636;12.164;2023-02-26T08:24:10;-0.41;83.91
68248;SHT30;55064;49.636;12.164;2023-02-26T08:26:36;-0.16;82.97
68248;SHT30;55064;49.636;12.164;2023-02-26T08:29:02;0.15;82.02
68248;SHT30;55064;49.636;12.164;2023-02-26T08:31:28;0.33;81.07
68248;SHT30;55064;49.636;12.164;2023-02-26T08:33:53;0.03;80.72
68248;SHT30;55064;49.636;12.164;2023-02-26T08:36:19;-0.18;81.37
68248;SHT30;55064;49.636;12.164;2023-02-26T08:38:48;-0.27;81.74
68248;SHT30;55064;49.636;12.164;2023-02-26T08:41:14;-0.37;81.65
68248;SHT30;55064;49.636;12.164;2023-02-26T08:43:42;-0.33;81.43
68248;SHT30;55064;49.636;12.164;2023-02-26T08:46:08;-0.10;82.10
68248;SHT30;55064;49.636;12.164;2023-02-26T08:48:33;0.25;80.78
68248;SHT30;55064;49.636;12.164;2023-02-26T08:51:02;0.80;79.49
68248;SHT30;55064;49.636;12.164;2023-02-26T08:53:30;1.45;77.70
68248;SHT30;55064;49.636;12.164;2023-02-26T08:55:56;2.22;74.64
68248;SHT30;55064;49.636;12.164;2023-02-26T08:58:24;2.60;72.06
68248;SHT30;55064;49.636;12.164;2023-02-26T09:00:49;2.96;70.65
68248;SHT30;55064;49.636;12.164;2023-02-26T09:03:17;2.64;69.48
68248;SHT30;55064;49.636;12.164;2023-02-26T09:05:42;1.91;72.85
68248;SHT30;55064;49.636;12.164;2023-02-26T09:08:07;1.34;75.24
68248;SHT30;55064;49.636;12.164;2023-02-26T09:10:34;0.86;77.34
68248;SHT30;55064;49.636;12.164;2023-02-26T09:13:00;0.70;78.15
68248;SHT30;55064;49.636;12.164;2023-02-26T09:15:25;0.55;78.85
68248;SHT30;55064;49.636;12.164;2023-02-26T09:17:50;0.49;79.71
68248;SHT30;55064;49.636;12.164;2023-02-26T09:20:16;0.45;79.52
68248;SHT30;55064;49.636;12.164;2023-02-26T09:22:41;0.33;79.51
68248;SHT30;55064;49.636;12.164;2023-02-26T09:25:07;0.29;79.54
68248;SHT30;55064;49.636;12.164;2023-02-26T09:27:33;0.33;79.38
68248;SHT30;55064;49.636;12.164;2023-02-26T09:29:59;0.35;79.67
68248;SHT30;55064;49.636;12.164;2023-02-26T09:32:25;0.41;79.35
68248;SHT30;55064;49.636;12.164;2023-02-26T09:34:51;0.44;80.13
68248;SHT30;55064;49.636;12.164;2023-02-26T09:37:19;0.58;79.89
68248;SHT30;55064;49.636;12.164;2023-02-26T09:39:46;0.59;79.28
68248;SHT30;55064;49.636;12.164;2023-02-26T09:44:54;0.49;78.52
68248;SHT30;55064;49.636;12.164;2023-02-26T09:47:30;0.49;78.97
68248;SHT30;55064;49.636;12.164;2023-02-26T09:52:40;0.37;79.84
68248;SHT30;55064;49.636;12.164;2023-02-26T09:57:46;0.35;80.01
68248;SHT30;55064;49.636;12.164;2023-02-26T10:00:28;0.19;80.72
68248;SHT30;55064;49.636;12.164;2023-02-26T10:03:58;0.15;80.69
68248;SHT30;55064;49.636;12.164;2023-02-26T10:06:38;0.24;80.92
68248;SHT30;55064;49.636;12.164;2023-02-26T10:14:43;0.32;79.59
68248;SHT30;55064;49.636;12.164;2023-02-26T10:17:27;0.45;79.06
68248;SHT30;55064;49.636;12.164;2023-02-26T10:20:01;0.49;77.22
68248;SHT30;55064;49.636;12.164;2023-02-26T10:22:33;0.58;77.76
68248;SHT30;55064;49.636;12.164;2023-02-26T10:25:24;0.62;76.14
68248;SHT30;55064;49.636;12.164;2023-02-26T10:37:18;0.77;73.52
68248;SHT30;55064;49.636;12.164;2023-02-26T10:42:58;0.76;71.58
68248;SHT30;55064;49.636;12.164;2023-02-26T10:51:50;1.67;70.99
68248;SHT30;55064;49.636;12.164;2023-02-26T10:57:43;1.53;68.04
68248;SHT30;55064;49.636;12.164;2023-02-26T11:00:20;1.35;70.79
68248;SHT30;55064;49.636;12.164;2023-02-26T11:03:06;1.21;70.55
68248;SHT30;55064;49.636;12.164;2023-02-26T11:05:45;1.07;71.04
68248;SHT30;55064;49.636;12.164;2023-02-26T11:08:23;0.93;70.19
68248;SHT30;55064;49.636;12.164;2023-02-26T11:20:35;0.80;71.00
68248;SHT30;55064;49.636;12.164;2023-02-26T11:23:05;0.83;71.14
68248;SHT30;55064;49.636;12.164;2023-02-26T11:25:38;0.86;71.40
68248;SHT30;55064;49.636;12.164;2023-02-26T11:28:16;1.00;71.44
68248;SHT30;55064;49.636;12.164;2023-02-26T11:30:47;0.97;69.83
68248;SHT30;55064;49.636;12.164;2023-02-26T11:36:44;1.01;70.95
68248;SHT30;55064;49.636;12.164;2023-02-26T11:39:45;1.18;70.13
68248;SHT30;55064;49.636;12.164;2023-02-26T11:42:11;1.25;70.12
68248;SHT30;55064;49.636;12.164;2023-02-26T11:44:42;1.22;69.43
68248;SHT30;55064;49.636;12.164;2023-02-26T11:47:14;1.42;70.21
68248;SHT30;55064;49.636;12.164;2023-02-26T11:50:00;1.53;68.13
68248;SHT30;55064;49.636;12.164;2023-02-26T11:52:35;1.64;68.41
68248;SHT30;55064;49.636;12.164;2023-02-26T11:57:50;1.31;68.04
68248;SHT30;55064;49.636;12.164;2023-02-26T12:00:22;1.25;69.92
68248;SHT30;55064;49.636;12.164;2023-02-26T12:02:48;1.27;70.31
68248;SHT30;55064;49.636;12.164;2023-02-26T12:05:19;1.24;69.55
68248;SHT30;55064;49.636;12.164;2023-02-26T12:07:44;1.13;69.72
68248;SHT30;55064;49.636;12.164;2023-02-26T12:10:17;1.21;70.08
68248;SHT30;55064;49.636;12.164;2023-02-26T12:15:33;1.17;68.64
68248;SHT30;55064;49.636;12.164;2023-02-26T12:18:22;1.27;68.26
68248;SHT30;55064;49.636;12.164;2023-02-26T12:26:28;2.08;68.02
68248;SHT30;55064;49.636;12.164;2023-02-26T12:46:18;0.87;73.54
68248;SHT30;55064;49.636;12.164;2023-02-26T12:55:09;1.48;71.86
68248;SHT30;55064;49.636;12.164;2023-02-26T13:06:18;1.17;73.41
68248;SHT30;55064;49.636;12.164;2023-02-26T13:26:52;0.86;82.21
68248;SHT30;55064;49.636;12.164;2023-02-26T13:29:26;0.48;86.00
68248;SHT30;55064;49.636;12.164;2023-02-26T13:34:47;0.29;82.62
68248;SHT30;55064;49.636;12.164;2023-02-26T13:38:12;0.39;82.61
68248;SHT30;55064;49.636;12.164;2023-02-26T13:44:16;0.90;80.50
68248;SHT30;55064;49.636;12.164;2023-02-26T13:49:40;1.27;78.68
68248;SHT30;55064;49.636;12.164;2023-02-26T13:52:25;1.42;78.20
68248;SHT30;55064;49.636;12.164;2023-02-26T13:54:50;1.56;77.53
68248;SHT30;55064;49.636;12.164;2023-02-26T13:57:35;1.66;75.83
68248;SHT30;55064;49.636;12.164;2023-02-26T14:00:09;1.73;75.19
68248;SHT30;55064;49.636;12.164;2023-02-26T14:13:22;1.91;73.06
68248;SHT30;55064;49.636;12.164;2023-02-26T14:18:48;1.81;76.75
68248;SHT30;55064;49.636;12.164;2023-02-26T14:23:49;1.11;79.25
68248;SHT30;55064;49.636;12.164;2023-02-26T14:26:20;0.88;79.49
68248;SHT30;55064;49.636;12.164;2023-02-26T14:34:25;1.05;79.02
68248;SHT30;55064;49.636;12.164;2023-02-26T14:37:03;1.22;78.59
68248;SHT30;55064;49.636;12.164;2023-02-26T14:40:22;1.32;77.78
68248;SHT30;55064;49.636;12.164;2023-02-26T14:42:57;1.46;77.03
68248;SHT30;55064;49.636;12.164;2023-02-26T14:45:31;1.42;76.89
68248;SHT30;55064;49.636;12.164;2023-02-26T14:48:01;1.31;76.35
68248;SHT30;55064;49.636;12.164;2023-02-26T14:56:50;1.24;73.56
68248;SHT30;55064;49.636;12.164;2023-02-26T15:02:05;1.11;74.50
68248;SHT30;55064;49.636;12.164;2023-02-26T15:10:02;0.75;71.34
68248;SHT30;55064;49.636;12.164;2023-02-26T15:15:19;0.93;72.56
68248;SHT30;55064;49.636;12.164;2023-02-26T15:23:32;0.88;72.06
68248;SHT30;55064;49.636;12.164;2023-02-26T15:26:01;0.91;72.85
68248;SHT30;55064;49.636;12.164;2023-02-26T15:28:32;0.87;72.65
68248;SHT30;55064;49.636;12.164;2023-02-26T15:31:01;0.73;72.73
68248;SHT30;55064;49.636;12.164;2023-02-26T15:33:29;0.59;73.83
68248;SHT30;55064;49.636;12.164;2023-02-26T15:35:56;0.59;74.17
68248;SHT30;55064;49.636;12.164;2023-02-26T15:38:22;0.59;74.62
68248;SHT30;55064;49.636;12.164;2023-02-26T15:40:50;0.50;74.76
68248;SHT30;55064;49.636;12.164;2023-02-26T15:43:23;0.52;75.16
68248;SHT30;55064;49.636;12.164;2023-02-26T15:45:54;0.58;74.79
68248;SHT30;55064;49.636;12.164;2023-02-26T15:48:26;0.49;74.94
68248;SHT30;55064;49.636;12.164;2023-02-26T15:50:55;0.49;74.33
68248;SHT30;55064;49.636;12.164;2023-02-26T15:53:34;0.55;74.09
68248;SHT30;55064;49.636;12.164;2023-02-26T15:56:03;0.52;74.09
68248;SHT30;55064;49.636;12.164;2023-02-26T15:58:35;0.45;73.83
68248;SHT30;55064;49.636;12.164;2023-02-26T16:01:03;0.50;74.21
68248;SHT30;55064;49.636;12.164;2023-02-26T16:03:35;0.44;73.21
68248;SHT30;55064;49.636;12.164;2023-02-26T16:06:02;0.42;74.41
68248;SHT30;55064;49.636;12.164;2023-02-26T16:08:28;0.29;75.38
68248;SHT30;55064;49.636;12.164;2023-02-26T16:10:55;0.11;78.14
68248;SHT30;55064;49.636;12.164;2023-02-26T16:13:32;0.03;79.85
68248;SHT30;55064;49.636;12.164;2023-02-26T16:16:04;-0.18;80.96
68248;SHT30;55064;49.636;12.164;2023-02-26T16:18:32;-0.27;81.75
68248;SHT30;55064;49.636;12.164;2023-02-26T16:21:02;-0.24;81.83
68248;SHT30;55064;49.636;12.164;2023-02-26T16:23:43;-0.41;84.43
68248;SHT30;55064;49.636;12.164;2023-02-26T16:26:23;-0.44;85.20
68248;SHT30;55064;49.636;12.164;2023-02-26T16:28:58;-0.45;85.45
68248;SHT30;55064;49.636;12.164;2023-02-26T16:31:27;-0.45;84.49
68248;SHT30;55064;49.636;12.164;2023-02-26T16:33:59;-0.47;82.92
68248;SHT30;55064;49.636;12.164;2023-02-26T16:36:40;-0.42;83.06
68248;SHT30;55064;49.636;12.164;2023-02-26T16:39:14;-0.44;82.56
68248;SHT30;55064;49.636;12.164;2023-02-26T16:41:46;-0.50;81.84
68248;SHT30;55064;49.636;12.164;2023-02-26T16:46:56;-0.44;80.82
68248;SHT30;55064;49.636;12.164;2023-02-26T16:49:29;-0.44;80.35
68248;SHT30;55064;49.636;12.164;2023-02-26T16:51:56;-0.41;80.02
68248;SHT30;55064;49.636;12.164;2023-02-26T16:54:25;-0.44;79.34
68248;SHT30;55064;49.636;12.164;2023-02-26T16:59:27;-0.52;78.99
68248;SHT30;55064;49.636;12.164;2023-02-26T17:01:55;-0.51;78.95
68248;SHT30;55064;49.636;12.164;2023-02-26T17:04:32;-0.52;78.21
68248;SHT30;55064;49.636;12.164;2023-02-26T17:07:30;-0.58;79.22
68248;SHT30;55064;49.636;12.164;2023-02-26T17:09:58;-0.58;79.15
68248;SHT30;55064;49.636;12.164;2023-02-26T17:12:42;-0.61;78.89
68248;SHT30;55064;49.636;12.164;2023-02-26T17:15:25;-0.60;78.43
68248;SHT30;55064;49.636;12.164;2023-02-26T17:17:54;-0.62;77.92
68248;SHT30;55064;49.636;12.164;2023-02-26T17:20:24;-0.64;77.90
68248;SHT30;55064;49.636;12.164;2023-02-26T17:22:52;-0.64;77.70
68248;SHT30;55064;49.636;12.164;2023-02-26T17:25:22;-0.66;77.00
68248;SHT30;55064;49.636;12.164;2023-02-26T17:27:50;-0.62;77.32
68248;SHT30;55064;49.636;12.164;2023-02-26T17:30:21;-0.68;77.47
68248;SHT30;55064;49.636;12.164;2023-02-26T17:32:49;-0.72;77.90
68248;SHT30;55064;49.636;12.164;2023-02-26T17:35:17;-0.81;77.22
68248;SHT30;55064;49.636;12.164;2023-02-26T17:41:05;-0.92;77.30
68248;SHT30;55064;49.636;12.164;2023-02-26T17:44:02;-0.95;77.45
68248;SHT30;55064;49.636;12.164;2023-02-26T17:46:31;-0.96;77.41
68248;SHT30;55064;49.636;12.164;2023-02-26T17:48:56;-0.97;77.43
68248;SHT30;55064;49.636;12.164;2023-02-26T17:51:22;-1.01;76.97
68248;SHT30;55064;49.636;12.164;2023-02-26T17:53:48;-1.07;76.97
68248;SHT30;55064;49.636;12.164;2023-02-26T17:56:34;-1.10;77.44
68248;SHT30;55064;49.636;12.164;2023-02-26T17:59:00;-1.16;77.38
68248;SHT30;55064;49.636;12.164;2023-02-26T18:01:57;-1.17;77.40
68248;SHT30;55064;49.636;12.164;2023-02-26T18:04:23;-1.21;77.86
68248;SHT30;55064;49.636;12.164;2023-02-26T18:07:13;-1.21;77.51
68248;SHT30;55064;49.636;12.164;2023-02-26T18:13:02;-1.24;77.90
68248;SHT30;55064;49.636;12.164;2023-02-26T18:15:59;-1.27;77.00
68248;SHT30;55064;49.636;12.164;2023-02-26T18:18:57;-1.30;77.46
68248;SHT30;55064;49.636;12.164;2023-02-26T18:21:32;-1.34;77.33
68248;SHT30;55064;49.636;12.164;2023-02-26T18:24:19;-1.38;77.56
68248;SHT30;55064;49.636;12.164;2023-02-26T18:27:10;-1.41;77.53
68248;SHT30;55064;49.636;12.164;2023-02-26T18:32:54;-1.44;77.66
68248;SHT30;55064;49.636;12.164;2023-02-26T18:35:31;-1.38;77.87
68248;SHT30;55064;49.636;12.164;2023-02-26T18:37:57;-1.41;77.92
68248;SHT30;55064;49.636;12.164;2023-02-26T18:40:24;-1.38;77.52
68248;SHT30;55064;49.636;12.164;2023-02-26T18:42:51;-1.40;77.88
68248;SHT30;55064;49.636;12.164;2023-02-26T18:45:19;-1.48;77.72
68248;SHT30;55064;49.636;12.164;2023-02-26T18:47:53;-1.51;78.22
68248;SHT30;55064;49.636;12.164;2023-02-26T18:50:36;-1.55;78.50
68248;SHT30;55064;49.636;12.164;2023-02-26T18:53:04;-1.52;78.60
68248;SHT30;55064;49.636;12.164;2023-02-26T18:55:51;-1.56;77.81
68248;SHT30;55064;49.636;12.164;2023-02-26T18:58:36;-1.58;77.92
68248;SHT30;55064;49.636;12.164;2023-02-26T19:01:23;-1.62;78.41
68248;SHT30;55064;49.636;12.164;2023-02-26T19:04:21;-1.62;78.24
68248;SHT30;55064;49.636;12.164;2023-02-26T19:06:56;-1.66;78.59
68248;SHT30;55064;49.636;12.164;2023-02-26T19:09:24;-1.66;78.12
68248;SHT30;55064;49.636;12.164;2023-02-26T19:12:04;-1.61;78.09
68248;SHT30;55064;49.636;12.164;2023-02-26T19:14:36;-1.58;78.07
68248;SHT30;55064;49.636;12.164;2023-02-26T19:17:05;-1.54;77.49
68248;SHT30;55064;49.636;12.164;2023-02-26T19:19:31;-1.50;77.10
68248;SHT30;55064;49.636;12.164;2023-02-26T19:21:58;-1.52;77.93
68248;SHT30;55064;49.636;12.164;2023-02-26T19:24:26;-1.47;77.63
68248;SHT30;55064;49.636;12.164;2023-02-26T19:27:12;-1.48;77.66
68248;SHT30;55064;49.636;12.164;2023-02-26T19:29:50;-1.44;77.24
68248;SHT30;55064;49.636;12.164;2023-02-26T19:32:30;-1.45;77.55
68248;SHT30;55064;49.636;12.164;2023-02-26T19:35:03;-1.44;76.80
68248;SHT30;55064;49.636;12.164;2023-02-26T19:37:47;-1.44;76.95
68248;SHT30;55064;49.636;12.164;2023-02-26T19:40:43;-1.43;76.59
68248;SHT30;55064;49.636;12.164;2023-02-26T19:46:26;-1.41;77.13
68248;SHT30;55064;49.636;12.164;2023-02-26T19:48:52;-1.41;77.40
68248;SHT30;55064;49.636;12.164;2023-02-26T19:51:19;-1.44;76.89
68248;SHT30;55064;49.636;12.164;2023-02-26T19:53:44;-1.45;77.18
68248;SHT30;55064;49.636;12.164;2023-02-26T19:56:21;-1.48;77.39